Teddy Meyer — WDF9635 — position and weather

sailwx.info

Track history (hours):
 
Tides and Currents Weather Stations Pressure Air Temp Water Temp Dewpoint Dewpoint Depression Visibility Wind Speed Wind Dir Waves Ship Positions

Teddy Meyer

Owner: LeBeouf Bros. Towing, LLC, Houma, LA. More information available from US FCC via Universal Licensing System and Coast Guard Vessel Documentation Center.

Last reported at 2017-Jul-13 12:01 UTC. Time now 2017-Jul-22 22:35 UTC.
Position N 29°50' W 091°60'.
Warning: this ship's position is 9 days out of date.

; draft 3 m.

MMSI: 367507220.

Date/timePositionNaut miles runAvg speedWind from/ knotsBaromVisibWave heightAir tempDewpointWater temp
2017-Jul-13 12:01N 29°50' W 091°60'2 3.8
2017-Jul-13 11:31N 29°49' W 092°02'2 4.7
2017-Jul-13 11:01N 29°48' W 092°04'2 4.8
2017-Jul-13 10:31N 29°48' W 092°07'3 5.0
2017-Jul-13 09:58N 29°47' W 092°10'2 5.0
2017-Jul-13 09:31N 29°47' W 092°12'3 5.4
2017-Jul-13 09:00N 29°48' W 092°15'2 5.0
2017-Jul-13 08:31N 29°50' W 092°18'2 4.7
2017-Jul-13 08:00N 29°51' W 092°20'39 4.4
2017-Jul-12 23:12N 29°56' W 093°04'2 4.1
2017-Jul-12 22:45N 29°56' W 093°07'1 4.1
2017-Jul-12 22:31N 29°56' W 093°08'2 4.0
2017-Jul-12 22:00N 29°57' W 093°10'2 4.5
2017-Jul-12 21:31N 29°58' W 093°12'2 4.1
2017-Jul-12 21:00N 29°60' W 093°13'2 3.9
2017-Jul-12 20:30N 30°02' W 093°14'2 4.0
2017-Jul-12 20:00N 30°03' W 093°16'2 4.4
2017-Jul-12 19:31N 30°05' W 093°17'1 2.4
2017-Jul-12 19:01N 30°06' W 093°18'1 1.2
2017-Jul-12 18:31N 30°06' W 093°18'0 0.0
2017-Jul-12 18:01N 30°06' W 093°18'0 0.0
2017-Jul-12 17:31N 30°06' W 093°18'0 0.0
2017-Jul-12 17:01N 30°06' W 093°18'0 0.0
2017-Jul-12 16:30N 30°06' W 093°18'0 0.0
2017-Jul-12 16:00N 30°06' W 093°18'0 0.1
2017-Jul-12 15:30N 30°06' W 093°18'1 1.9
2017-Jul-12 15:00N 30°06' W 093°19'3 3.2
2017-Jul-12 14:01N 30°04' W 093°22'2 3.4
2017-Jul-12 13:31N 30°04' W 093°24'2 4.0
2017-Jul-12 13:01N 30°04' W 093°26'2 4.0
2017-Jul-12 12:31N 30°04' W 093°29'2 4.6
2017-Jul-12 12:01N 30°04' W 093°31'2 4.5
2017-Jul-12 11:31N 30°04' W 093°34'2 4.4
2017-Jul-12 11:00N 30°04' W 093°36'2 4.2
2017-Jul-12 10:31N 30°04' W 093°39'2 4.6
2017-Jul-12 10:00N 30°04' W 093°42'2 4.2
2017-Jul-12 09:31N 30°03' W 093°44'3 4.6
2017-Jul-12 08:57N 30°01' W 093°46'6 5.0
2017-Jul-12 07:50N 29°58' W 093°51'2 5.0
2017-Jul-12 07:27N 29°56' W 093°52'  
2017-Jul-07 21:47N 29°29' W 094°52'2 7.8
2017-Jul-07 21:30N 29°31' W 094°53'4 7.7
2017-Jul-07 21:01N 29°35' W 094°56'4 7.5
2017-Jul-07 20:30N 29°38' W 094°58'4 7.9
2017-Jul-07 20:01N 29°42' W 094°59'3 5.6
2017-Jul-07 19:30N 29°42' W 095°02'0 0.5
2017-Jul-07 19:00N 29°42' W 095°03'0 0.0
2017-Jul-07 18:30N 29°42' W 095°03'0 0.0
2017-Jul-07 18:01N 29°42' W 095°03'0 0.0
2017-Jul-07 17:30N 29°42' W 095°03'0 0.0
2017-Jul-07 17:00N 29°42' W 095°03'0 0.0
2017-Jul-07 16:31N 29°42' W 095°03'0 0.0
2017-Jul-07 16:00N 29°42' W 095°03'0 0.0
2017-Jul-07 15:31N 29°42' W 095°03'0 0.0
2017-Jul-07 15:01N 29°42' W 095°03'0 0.0
2017-Jul-07 14:00N 29°42' W 095°03'0 0.0
2017-Jul-07 13:31N 29°42' W 095°03'0 0.0
2017-Jul-07 13:00N 29°42' W 095°03'0 0.0
2017-Jul-07 12:31N 29°42' W 095°03'0 0.0
2017-Jul-07 12:00N 29°42' W 095°03'0 0.0
2017-Jul-07 11:30N 29°42' W 095°03'0 0.0
2017-Jul-07 11:00N 29°42' W 095°03'0 0.0
2017-Jul-07 10:30N 29°42' W 095°03'0 0.0
2017-Jul-07 09:54N 29°42' W 095°03'0 0.0
2017-Jul-07 09:31N 29°42' W 095°03'0 0.0
2017-Jul-07 09:00N 29°42' W 095°03'0 0.0
2017-Jul-07 08:11N 29°42' W 095°03'0 0.1
2017-Jul-07 08:00N 29°42' W 095°03'0 0.0
2017-Jul-07 07:30N 29°42' W 095°03'0 0.0
2017-Jul-07 07:00N 29°42' W 095°03'0 0.0
2017-Jul-07 06:30N 29°42' W 095°03'0 0.0
2017-Jul-07 06:01N 29°42' W 095°03'0 0.0
2017-Jul-07 05:30N 29°42' W 095°03'0 0.0
2017-Jul-07 05:00N 29°42' W 095°03'0 0.0
2017-Jul-07 04:30N 29°42' W 095°03'0 0.0
2017-Jul-07 04:00N 29°42' W 095°03'0 0.0
2017-Jul-07 03:30N 29°42' W 095°03'0 0.0
2017-Jul-07 03:00N 29°42' W 095°03'0 0.0
2017-Jul-07 02:31N 29°42' W 095°03'0 0.0
2017-Jul-07 02:01N 29°42' W 095°03'0 0.0
2017-Jul-07 01:30N 29°42' W 095°03'0 0.0
2017-Jul-07 01:00N 29°42' W 095°03'0 0.0
2017-Jul-07 00:30N 29°42' W 095°03'0 0.0
2017-Jul-07 00:00N 29°42' W 095°03'0 0.0
2017-Jul-06 23:30N 29°42' W 095°03'0 0.0
2017-Jul-06 23:15N 29°42' W 095°03'2 0.1
2017-Jul-05 06:20N 29°44' W 095°01'0 0.0
2017-Jul-05 05:58N 29°44' W 095°01'0 0.0
2017-Jul-05 05:26N 29°44' W 095°01'0 0.0
2017-Jul-05 04:49N 29°44' W 095°01'0 0.0
2017-Jul-05 04:25N 29°44' W 095°01'0 0.0
2017-Jul-05 03:59N 29°44' W 095°01'0 0.0
2017-Jul-05 03:14N 29°44' W 095°01'0 0.0
2017-Jul-05 02:40N 29°44' W 095°01'0 0.0
2017-Jul-05 02:17N 29°44' W 095°01'0 0.0
2017-Jul-05 01:51N 29°44' W 095°01'0 0.0
2017-Jul-05 01:28N 29°44' W 095°01'0 0.0
2017-Jul-05 00:16N 29°44' W 095°01'0 0.0
2017-Jul-04 23:55N 29°44' W 095°01'0 0.0
2017-Jul-04 23:29N 29°44' W 095°01'0 0.0
2017-Jul-04 22:59N 29°44' W 095°01'0 0.0
2017-Jul-04 22:29N 29°44' W 095°01'0 0.0
2017-Jul-04 22:00N 29°44' W 095°01'0 0.0
2017-Jul-04 21:30N 29°44' W 095°01'0 0.0
2017-Jul-04 20:59N 29°44' W 095°01'0 0.0
2017-Jul-04 20:30N 29°44' W 095°01'0 0.0
2017-Jul-04 16:44N 29°44' W 095°01'0 0.0
2017-Jul-04 05:55N 29°44' W 095°01'0 0.9
2017-Jul-04 05:30N 29°44' W 095°01'1 2.7
2017-Jul-04 05:00N 29°42' W 095°01'1 2.6
2017-Jul-04 04:30N 29°43' W 095°03'0 0.3
2017-Jul-04 03:59N 29°42' W 095°03'0 0.0
2017-Jul-03 21:43N 29°42' W 095°03'0 0.0
2017-Jul-03 18:54N 29°42' W 095°03'0 0.0
2017-Jul-03 17:04N 29°42' W 095°03'  
Track history (hours):
 
Tides and Currents Weather Stations Pressure Air Temp Water Temp Dewpoint Dewpoint Depression Visibility Wind Speed Wind Dir Waves Ship Positions

Teddy Meyer

Owner: LeBeouf Bros. Towing, LLC, Houma, LA. More information available from US FCC via Universal Licensing System and Coast Guard Vessel Documentation Center.

Last reported at 2017-Jul-13 12:01 UTC. Time now 2017-Jul-22 22:35 UTC.
Position N 29°50' W 091°60'.
Warning: this ship's position is 9 days out of date.

; draft 3 m.

MMSI: 367507220.

Date/timePositionNaut miles runAvg speedWind from/ knotsBaromVisibWave heightAir tempDewpointWater temp
2017-Jul-13 12:01N 29°50' W 091°60'2 3.8
2017-Jul-13 11:31N 29°49' W 092°02'2 4.7
2017-Jul-13 11:01N 29°48' W 092°04'2 4.8
2017-Jul-13 10:31N 29°48' W 092°07'3 5.0
2017-Jul-13 09:58N 29°47' W 092°10'2 5.0
2017-Jul-13 09:31N 29°47' W 092°12'3 5.4
2017-Jul-13 09:00N 29°48' W 092°15'2 5.0
2017-Jul-13 08:31N 29°50' W 092°18'2 4.7
2017-Jul-13 08:00N 29°51' W 092°20'39 4.4
2017-Jul-12 23:12N 29°56' W 093°04'2 4.1
2017-Jul-12 22:45N 29°56' W 093°07'1 4.1
2017-Jul-12 22:31N 29°56' W 093°08'2 4.0
2017-Jul-12 22:00N 29°57' W 093°10'2 4.5
2017-Jul-12 21:31N 29°58' W 093°12'2 4.1
2017-Jul-12 21:00N 29°60' W 093°13'2 3.9
2017-Jul-12 20:30N 30°02' W 093°14'2 4.0
2017-Jul-12 20:00N 30°03' W 093°16'2 4.4
2017-Jul-12 19:31N 30°05' W 093°17'1 2.4
2017-Jul-12 19:01N 30°06' W 093°18'1 1.2
2017-Jul-12 18:31N 30°06' W 093°18'0 0.0
2017-Jul-12 18:01N 30°06' W 093°18'0 0.0
2017-Jul-12 17:31N 30°06' W 093°18'0 0.0
2017-Jul-12 17:01N 30°06' W 093°18'0 0.0
2017-Jul-12 16:30N 30°06' W 093°18'0 0.0
2017-Jul-12 16:00N 30°06' W 093°18'0 0.1
2017-Jul-12 15:30N 30°06' W 093°18'1 1.9
2017-Jul-12 15:00N 30°06' W 093°19'3 3.2
2017-Jul-12 14:01N 30°04' W 093°22'2 3.4
2017-Jul-12 13:31N 30°04' W 093°24'2 4.0
2017-Jul-12 13:01N 30°04' W 093°26'2 4.0
2017-Jul-12 12:31N 30°04' W 093°29'2 4.6
2017-Jul-12 12:01N 30°04' W 093°31'2 4.5
2017-Jul-12 11:31N 30°04' W 093°34'2 4.4
2017-Jul-12 11:00N 30°04' W 093°36'2 4.2
2017-Jul-12 10:31N 30°04' W 093°39'2 4.6
2017-Jul-12 10:00N 30°04' W 093°42'2 4.2
2017-Jul-12 09:31N 30°03' W 093°44'3 4.6
2017-Jul-12 08:57N 30°01' W 093°46'6 5.0
2017-Jul-12 07:50N 29°58' W 093°51'2 5.0
2017-Jul-12 07:27N 29°56' W 093°52'  
2017-Jul-07 21:47N 29°29' W 094°52'2 7.8
2017-Jul-07 21:30N 29°31' W 094°53'4 7.7
2017-Jul-07 21:01N 29°35' W 094°56'4 7.5
2017-Jul-07 20:30N 29°38' W 094°58'4 7.9
2017-Jul-07 20:01N 29°42' W 094°59'3 5.6
2017-Jul-07 19:30N 29°42' W 095°02'0 0.5
2017-Jul-07 19:00N 29°42' W 095°03'0 0.0
2017-Jul-07 18:30N 29°42' W 095°03'0 0.0
2017-Jul-07 18:01N 29°42' W 095°03'0 0.0
2017-Jul-07 17:30N 29°42' W 095°03'0 0.0
2017-Jul-07 17:00N 29°42' W 095°03'0 0.0
2017-Jul-07 16:31N 29°42' W 095°03'0 0.0
2017-Jul-07 16:00N 29°42' W 095°03'0 0.0
2017-Jul-07 15:31N 29°42' W 095°03'0 0.0
2017-Jul-07 15:01N 29°42' W 095°03'0 0.0
2017-Jul-07 14:00N 29°42' W 095°03'0 0.0
2017-Jul-07 13:31N 29°42' W 095°03'0 0.0
2017-Jul-07 13:00N 29°42' W 095°03'0 0.0
2017-Jul-07 12:31N 29°42' W 095°03'0 0.0
2017-Jul-07 12:00N 29°42' W 095°03'0 0.0
2017-Jul-07 11:30N 29°42' W 095°03'0 0.0
2017-Jul-07 11:00N 29°42' W 095°03'0 0.0
2017-Jul-07 10:30N 29°42' W 095°03'0 0.0
2017-Jul-07 09:54N 29°42' W 095°03'0 0.0
2017-Jul-07 09:31N 29°42' W 095°03'0 0.0
2017-Jul-07 09:00N 29°42' W 095°03'0 0.0
2017-Jul-07 08:11N 29°42' W 095°03'0 0.1
2017-Jul-07 08:00N 29°42' W 095°03'0 0.0
2017-Jul-07 07:30N 29°42' W 095°03'0 0.0
2017-Jul-07 07:00N 29°42' W 095°03'0 0.0
2017-Jul-07 06:30N 29°42' W 095°03'0 0.0
2017-Jul-07 06:01N 29°42' W 095°03'0 0.0
2017-Jul-07 05:30N 29°42' W 095°03'0 0.0
2017-Jul-07 05:00N 29°42' W 095°03'0 0.0
2017-Jul-07 04:30N 29°42' W 095°03'0 0.0
2017-Jul-07 04:00N 29°42' W 095°03'0 0.0
2017-Jul-07 03:30N 29°42' W 095°03'0 0.0
2017-Jul-07 03:00N 29°42' W 095°03'0 0.0
2017-Jul-07 02:31N 29°42' W 095°03'0 0.0
2017-Jul-07 02:01N 29°42' W 095°03'0 0.0
2017-Jul-07 01:30N 29°42' W 095°03'0 0.0
2017-Jul-07 01:00N 29°42' W 095°03'0 0.0
2017-Jul-07 00:30N 29°42' W 095°03'0 0.0
2017-Jul-07 00:00N 29°42' W 095°03'0 0.0
2017-Jul-06 23:30N 29°42' W 095°03'0 0.0
2017-Jul-06 23:15N 29°42' W 095°03'2 0.1
2017-Jul-05 06:20N 29°44' W 095°01'0 0.0
2017-Jul-05 05:58N 29°44' W 095°01'0 0.0
2017-Jul-05 05:26N 29°44' W 095°01'0 0.0
2017-Jul-05 04:49N 29°44' W 095°01'0 0.0
2017-Jul-05 04:25N 29°44' W 095°01'0 0.0
2017-Jul-05 03:59N 29°44' W 095°01'0 0.0
2017-Jul-05 03:14N 29°44' W 095°01'0 0.0
2017-Jul-05 02:40N 29°44' W 095°01'0 0.0
2017-Jul-05 02:17N 29°44' W 095°01'0 0.0
2017-Jul-05 01:51N 29°44' W 095°01'0 0.0
2017-Jul-05 01:28N 29°44' W 095°01'0 0.0
2017-Jul-05 00:16N 29°44' W 095°01'0 0.0
2017-Jul-04 23:55N 29°44' W 095°01'0 0.0
2017-Jul-04 23:29N 29°44' W 095°01'0 0.0
2017-Jul-04 22:59N 29°44' W 095°01'0 0.0
2017-Jul-04 22:29N 29°44' W 095°01'0 0.0
2017-Jul-04 22:00N 29°44' W 095°01'0 0.0
2017-Jul-04 21:30N 29°44' W 095°01'0 0.0
2017-Jul-04 20:59N 29°44' W 095°01'0 0.0
2017-Jul-04 20:30N 29°44' W 095°01'0 0.0
2017-Jul-04 16:44N 29°44' W 095°01'0 0.0
2017-Jul-04 05:55N 29°44' W 095°01'0 0.9
2017-Jul-04 05:30N 29°44' W 095°01'1 2.7
2017-Jul-04 05:00N 29°42' W 095°01'1 2.6
2017-Jul-04 04:30N 29°43' W 095°03'0 0.3
2017-Jul-04 03:59N 29°42' W 095°03'0 0.0
2017-Jul-03 21:43N 29°42' W 095°03'0 0.0
2017-Jul-03 18:54N 29°42' W 095°03'0 0.0
2017-Jul-03 17:04N 29°42' W 095°03'  

Dump ship's entire track history